Daytona Beach, Florida
Current Conditions -  °F | °C
As of 5:53 AM on Saturday 20 Dec 2014 (Local Time) from KDAB Reporting Station
Haze Haze  
Wind Chill: 57°   Ceiling: Unl
Heat Index: 57°   Visibility: 6mi
Dew Point: 56°   Wind: 0mph
Humidity: 96%   Direction: NA
Pressure: 30.09"   Gusts: NA
Location:  29.2°N, 81.04°W
Report Text: KDAB 201053Z 00000KT 6SM BR SCT030 SCT038 SCT045 14/13 A3009 RMK AO2 SLP187 T01390133
Loading
Personal Weather Stations






























Interactive Weather Map New forecast layout! Learn more

10-Day Weather Forecast

Advertisements
Track Severe Weather on mobile